Wetterdaten: Freitag, 23.07.2010
Datum Zeit Temp. A. Feuchte A. Luftdruck Regen Wind Richtung Richtung Sonnenschein UV Solar Windben
23.07.2010 00:00 16,8 C 92 % 1014,9 hPa 0,0 mm 0,0 km/h (0 Bft) N 0 0 min 0 UV-I 0 W/m 0,0 km/h (0 Bft)
23.07.2010 00:10 16,7 C 92 % 1014,9 hPa 0,0 mm 0,0 km/h (0 Bft) N 0 0 min 0 UV-I 0 W/m 0,0 km/h (0 Bft)
23.07.2010 00:20 16,7 C 92 % 1014,8 hPa 0,0 mm 0,0 km/h (0 Bft) W-NW 292 0 min 0 UV-I 0 W/m 1,6 km/h (1 Bft)
23.07.2010 00:30 16,6 C 92 % 1015,0 hPa 0,0 mm 0,0 km/h (0 Bft) W-NW 292 0 min 0 UV-I 0 W/m 1,6 km/h (1 Bft)
23.07.2010 00:40 16,6 C 92 % 1014,8 hPa 0,0 mm 0,0 km/h (0 Bft) W-NW 292 0 min 0 UV-I 0 W/m 1,6 km/h (1 Bft)
23.07.2010 00:50 16,6 C 92 % 1014,5 hPa 0,0 mm 0,0 km/h (0 Bft) W-NW 292 0 min 0 UV-I 0 W/m 1,6 km/h (1 Bft)
23.07.2010 01:00 16,5 C 92 % 1014,8 hPa 0,0 mm 0,0 km/h (0 Bft) W-NW 292 0 min 0 UV-I 0 W/m 1,6 km/h (1 Bft)
23.07.2010 01:10 16,4 C 92 % 1014,9 hPa 0,0 mm 0,0 km/h (0 Bft) W-NW 292 0 min 0 UV-I 0 W/m 1,6 km/h (1 Bft)
23.07.2010 01:20 16,4 C 93 % 1014,8 hPa 0,0 mm 0,0 km/h (0 Bft) W-NW 292 0 min 0 UV-I 0 W/m 3,2 km/h (1 Bft)
23.07.2010 01:30 16,4 C 93 % 1014,8 hPa 0,0 mm 0,0 km/h (0 Bft) W-NW 292 0 min 0 UV-I 0 W/m 3,2 km/h (1 Bft)
23.07.2010 01:40 16,4 C 92 % 1014,7 hPa 0,0 mm 0,0 km/h (0 Bft) W-NW 292 0 min 0 UV-I 0 W/m 3,2 km/h (1 Bft)
23.07.2010 01:50 16,5 C 93 % 1014,7 hPa 0,0 mm 0,0 km/h (0 Bft) W-NW 292 0 min 0 UV-I 0 W/m 1,6 km/h (1 Bft)
23.07.2010 02:00 16,6 C 93 % 1014,7 hPa 0,0 mm 0,0 km/h (0 Bft) W-NW 292 0 min 0 UV-I 0 W/m 1,6 km/h (1 Bft)
23.07.2010 02:10 16,7 C 93 % 1014,4 hPa 0,0 mm 0,0 km/h (0 Bft) W-NW 292 0 min 0 UV-I 0 W/m 1,6 km/h (1 Bft)
23.07.2010 02:20 16,7 C 93 % 1014,5 hPa 0,0 mm 0,0 km/h (0 Bft) W-NW 292 0 min 0 UV-I 0 W/m 1,6 km/h (1 Bft)
23.07.2010 02:30 16,7 C 93 % 1014,6 hPa 0,0 mm 0,0 km/h (0 Bft) W-NW 292 0 min 0 UV-I 0 W/m 1,6 km/h (1 Bft)
23.07.2010 02:40 16,8 C 93 % 1014,4 hPa 0,0 mm 0,0 km/h (0 Bft) N 0 0 min 0 UV-I 0 W/m 0,0 km/h (0 Bft)
23.07.2010 02:50 16,8 C 93 % 1014,4 hPa 0,0 mm 0,0 km/h (0 Bft) W-NW 292 0 min 0 UV-I 0 W/m 1,6 km/h (1 Bft)
23.07.2010 03:00 16,9 C 93 % 1014,5 hPa 0,0 mm 0,0 km/h (0 Bft) W-NW 292 0 min 0 UV-I 0 W/m 1,6 km/h (1 Bft)
23.07.2010 03:10 16,9 C 93 % 1014,6 hPa 0,0 mm 0,0 km/h (0 Bft) W-NW 292 0 min 0 UV-I 0 W/m 1,6 km/h (1 Bft)
23.07.2010 03:20 17,0 C 93 % 1014,6 hPa 0,0 mm 0,0 km/h (0 Bft) N 0 0 min 0 UV-I 0 W/m 0,0 km/h (0 Bft)
23.07.2010 03:30 17,1 C 93 % 1014,7 hPa 0,0 mm 0,0 km/h (0 Bft) W-NW 292 0 min 0 UV-I 0 W/m 1,6 km/h (1 Bft)
23.07.2010 03:40 17,0 C 92 % 1014,7 hPa 0,0 mm 0,0 km/h (0 Bft) N 0 0 min 0 UV-I 0 W/m 0,0 km/h (0 Bft)
23.07.2010 03:50 17,1 C 93 % 1014,8 hPa 0,0 mm 0,0 km/h (0 Bft) N 0 0 min 0 UV-I 0 W/m 0,0 km/h (0 Bft)
23.07.2010 04:00 17,1 C 92 % 1014,8 hPa 0,0 mm 0,0 km/h (0 Bft) N 0 0 min 0 UV-I 0 W/m 0,0 km/h (0 Bft)
23.07.2010 04:10 17,2 C 92 % 1014,8 hPa 0,0 mm 0,0 km/h (0 Bft) W-NW 292 0 min 0 UV-I 0 W/m 1,6 km/h (1 Bft)
23.07.2010 04:20 17,2 C 92 % 1014,8 hPa 0,0 mm 0,0 km/h (0 Bft) N 0 0 min 0 UV-I 0 W/m 0,0 km/h (0 Bft)
23.07.2010 04:30 17,2 C 92 % 1014,8 hPa 0,0 mm 0,0 km/h (0 Bft) N 0 0 min 0 UV-I 0 W/m 0,0 km/h (0 Bft)
23.07.2010 04:40 17,2 C 92 % 1014,8 hPa 0,0 mm 0,0 km/h (0 Bft) N 0 0 min 0 UV-I 0 W/m 0,0 km/h (0 Bft)
23.07.2010 04:50 17,2 C 93 % 1014,9 hPa 0,0 mm 0,0 km/h (0 Bft) W-NW 292 0 min 0 UV-I 0 W/m 1,6 km/h (1 Bft)
23.07.2010 05:00 17,3 C 93 % 1014,8 hPa 0,0 mm 0,0 km/h (0 Bft) N 0 0 min 0 UV-I 0 W/m 0,0 km/h (0 Bft)
23.07.2010 05:10 17,4 C 93 % 1014,8 hPa 0,0 mm 0,0 km/h (0 Bft) W-NW 292 0 min 0 UV-I 0 W/m 1,6 km/h (1 Bft)
23.07.2010 05:20 17,4 C 93 % 1014,9 hPa 0,0 mm 0,0 km/h (0 Bft) N 0 0 min 0 UV-I 0 W/m 0,0 km/h (0 Bft)
23.07.2010 05:30 17,4 C 93 % 1015,0 hPa 0,0 mm 0,0 km/h (0 Bft) W-NW 292 0 min 0 UV-I 0 W/m 1,6 km/h (1 Bft)
23.07.2010 05:40 17,4 C 93 % 1015,1 hPa 0,0 mm 0,0 km/h (0 Bft) W-NW 292 0 min 0 UV-I 0 W/m 1,6 km/h (1 Bft)
23.07.2010 05:50 17,4 C 93 % 1015,1 hPa 0,5 mm 0,0 km/h (0 Bft) W-NW 292 0 min 0 UV-I 0 W/m 3,2 km/h (1 Bft)
23.07.2010 06:00 17,3 C 93 % 1015,1 hPa 0,0 mm 0,0 km/h (0 Bft) W-NW 292 0 min 0 UV-I 0 W/m 4,8 km/h (1 Bft)
23.07.2010 06:10 17,3 C 93 % 1015,1 hPa 0,0 mm 0,0 km/h (0 Bft) W-NW 292 0 min 0 UV-I 0 W/m 4,8 km/h (1 Bft)
23.07.2010 06:20 17,3 C 93 % 1015,1 hPa 0,0 mm 0,0 km/h (0 Bft) W-NW 292 0 min 0 UV-I 0 W/m 1,6 km/h (1 Bft)
23.07.2010 06:30 17,2 C 93 % 1015,0 hPa 0,3 mm 0,0 km/h (0 Bft) W-NW 292 0 min 0 UV-I 7 W/m 1,6 km/h (1 Bft)
23.07.2010 06:40 17,2 C 93 % 1015,1 hPa 0,0 mm 0,0 km/h (0 Bft) W-NW 292 0 min 0 UV-I 16 W/m 3,2 km/h (1 Bft)
23.07.2010 06:50 17,2 C 93 % 1015,1 hPa 0,0 mm 0,0 km/h (0 Bft) W-NW 292 0 min 0 UV-I 30 W/m 1,6 km/h (1 Bft)
23.07.2010 07:00 17,2 C 93 % 1015,2 hPa 0,0 mm 0,0 km/h (0 Bft) W-NW 292 0 min 0 UV-I 39 W/m 1,6 km/h (1 Bft)
23.07.2010 07:10 17,3 C 93 % 1015,2 hPa 0,0 mm 0,0 km/h (0 Bft) W-NW 292 0 min 0 UV-I 35 W/m 1,6 km/h (1 Bft)
23.07.2010 07:20 17,4 C 93 % 1015,4 hPa 0,0 mm 0,0 km/h (0 Bft) W-NW 292 0 min 0 UV-I 40 W/m 1,6 km/h (1 Bft)
23.07.2010 07:30 17,5 C 93 % 1015,4 hPa 0,0 mm 0,0 km/h (0 Bft) W-NW 292 0 min 1 UV-I 72 W/m 3,2 km/h (1 Bft)
23.07.2010 07:40 17,7 C 93 % 1015,4 hPa 0,0 mm 0,0 km/h (0 Bft) W-NW 292 0 min 1 UV-I 81 W/m 1,6 km/h (1 Bft)
23.07.2010 07:50 17,8 C 93 % 1015,4 hPa 0,0 mm 0,0 km/h (0 Bft) W-NW 292 0 min 1 UV-I 83 W/m 3,2 km/h (1 Bft)
23.07.2010 08:00 17,8 C 93 % 1015,3 hPa 0,0 mm 0,4 km/h (0 Bft) W-NW 294 0 min 1 UV-I 82 W/m 1,6 km/h (1 Bft)
23.07.2010 08:10 17,7 C 92 % 1015,5 hPa 0,0 mm 0,0 km/h (0 Bft) W-NW 292 0 min 1 UV-I 105 W/m 6,4 km/h (2 Bft)
23.07.2010 08:20 17,9 C 92 % 1015,6 hPa 0,0 mm 0,0 km/h (0 Bft) W-NW 292 0 min 1 UV-I 104 W/m 4,8 km/h (1 Bft)
23.07.2010 08:30 17,9 C 92 % 1015,6 hPa 0,0 mm 1,6 km/h (1 Bft) W-NW 292 0 min 1 UV-I 111 W/m 6,4 km/h (2 Bft)
23.07.2010 08:40 17,9 C 91 % 1015,7 hPa 0,0 mm 1,6 km/h (1 Bft) W-NW 292 0 min 1 UV-I 167 W/m 6,4 km/h (2 Bft)
23.07.2010 08:50 18,2 C 90 % 1015,7 hPa 0,0 mm 3,2 km/h (1 Bft) W 270 10 min 2 UV-I 434 W/m 9,7 km/h (2 Bft)
23.07.2010 09:00 18,7 C 89 % 1015,8 hPa 0,0 mm 1,6 km/h (1 Bft) W 270 10 min 2 UV-I 506 W/m 9,7 km/h (2 Bft)
23.07.2010 09:10 18,8 C 87 % 1015,8 hPa 0,0 mm 3,2 km/h (1 Bft) W 270 10 min 2 UV-I 362 W/m 11,3 km/h (2 Bft)
23.07.2010 09:20 18,7 C 87 % 1015,7 hPa 0,0 mm 3,2 km/h (1 Bft) W 270 0 min 2 UV-I 241 W/m 11,3 km/h (2 Bft)
23.07.2010 09:30 19,0 C 86 % 1015,7 hPa 0,0 mm 1,6 km/h (1 Bft) W 270 10 min 2 UV-I 367 W/m 9,7 km/h (2 Bft)
23.07.2010 09:40 19,3 C 85 % 1015,8 hPa 0,0 mm 1,6 km/h (1 Bft) W 270 10 min 2 UV-I 388 W/m 6,4 km/h (2 Bft)
23.07.2010 09:50 19,6 C 83 % 1015,8 hPa 0,0 mm 1,6 km/h (1 Bft) W 270 10 min 2 UV-I 381 W/m 6,4 km/h (2 Bft)
23.07.2010 10:00 19,8 C 84 % 1015,8 hPa 0,0 mm 1,6 km/h (1 Bft) W 270 10 min 3 UV-I 633 W/m 6,4 km/h (2 Bft)
23.07.2010 10:10 20,2 C 80 % 1015,8 hPa 0,0 mm 1,6 km/h (1 Bft) W 270 10 min 3 UV-I 719 W/m 8,0 km/h (2 Bft)
23.07.2010 10:20 19,9 C 78 % 1016,0 hPa 0,0 mm 1,6 km/h (1 Bft) W 270 10 min 4 UV-I 649 W/m 6,4 km/h (2 Bft)
23.07.2010 10:30 20,7 C 80 % 1015,8 hPa 0,0 mm 0,0 km/h (0 Bft) W 270 10 min 4 UV-I 742 W/m 4,8 km/h (1 Bft)
23.07.2010 10:40 20,9 C 77 % 1015,7 hPa 0,0 mm 0,0 km/h (0 Bft) W 270 10 min 4 UV-I 703 W/m 6,4 km/h (2 Bft)
23.07.2010 10:50 21,5 C 76 % 1015,8 hPa 0,0 mm 0,0 km/h (0 Bft) W 270 10 min 4 UV-I 744 W/m 4,8 km/h (1 Bft)
23.07.2010 11:00 21,4 C 72 % 1015,7 hPa 0,0 mm 0,0 km/h (0 Bft) W 270 10 min 5 UV-I 707 W/m 6,4 km/h (2 Bft)
23.07.2010 11:10 21,7 C 68 % 1015,6 hPa 0,0 mm 1,6 km/h (1 Bft) W 270 10 min 5 UV-I 761 W/m 8,0 km/h (2 Bft)
23.07.2010 11:20 21,8 C 67 % 1015,6 hPa 0,0 mm 1,6 km/h (1 Bft) NW 315 10 min 5 UV-I 779 W/m 8,0 km/h (2 Bft)
23.07.2010 11:30 21,7 C 65 % 1015,5 hPa 0,0 mm 1,6 km/h (1 Bft) NW 315 10 min 5 UV-I 740 W/m 8,0 km/h (2 Bft)
23.07.2010 11:40 22,2 C 63 % 1015,5 hPa 0,0 mm 3,2 km/h (1 Bft) NW 315 10 min 6 UV-I 830 W/m 8,0 km/h (2 Bft)
23.07.2010 11:50 22,6 C 60 % 1015,6 hPa 0,0 mm 1,6 km/h (1 Bft) W-NW 292 10 min 6 UV-I 821 W/m 14,5 km/h (3 Bft)
23.07.2010 12:00 22,7 C 59 % 1015,4 hPa 0,0 mm 1,6 km/h (1 Bft) W 270 10 min 6 UV-I 459 W/m 8,0 km/h (2 Bft)
23.07.2010 12:10 22,8 C 58 % 1015,3 hPa 0,0 mm 4,8 km/h (1 Bft) N 360 10 min 6 UV-I 884 W/m 14,5 km/h (3 Bft)
23.07.2010 12:20 23,1 C 59 % 1015,3 hPa 0,0 mm 3,2 km/h (1 Bft) W-NW 292 10 min 5 UV-I 773 W/m 9,7 km/h (2 Bft)
23.07.2010 12:30 23,1 C 58 % 1015,4 hPa 0,0 mm 1,6 km/h (1 Bft) W-SW 247 10 min 4 UV-I 466 W/m 9,7 km/h (2 Bft)
23.07.2010 12:40 23,2 C 57 % 1015,2 hPa 0,0 mm 1,6 km/h (1 Bft) NW 315 10 min 5 UV-I 540 W/m 9,7 km/h (2 Bft)
23.07.2010 12:50 23,4 C 58 % 1015,2 hPa 0,0 mm 3,2 km/h (1 Bft) W-NW 292 10 min 6 UV-I 633 W/m 14,5 km/h (3 Bft)
23.07.2010 13:00 23,2 C 55 % 1015,2 hPa 0,0 mm 3,2 km/h (1 Bft) NW 315 10 min 6 UV-I 798 W/m 11,3 km/h (2 Bft)
23.07.2010 13:10 23,4 C 52 % 1015,2 hPa 0,0 mm 3,2 km/h (1 Bft) NW 315 10 min 6 UV-I 756 W/m 11,3 km/h (2 Bft)
23.07.2010 13:20 23,8 C 51 % 1015,1 hPa 0,0 mm 3,2 km/h (1 Bft) W-NW 292 10 min 5 UV-I 663 W/m 11,3 km/h (2 Bft)
23.07.2010 13:30 23,5 C 48 % 1015,0 hPa 0,0 mm 3,2 km/h (1 Bft) W-NW 292 10 min 4 UV-I 492 W/m 11,3 km/h (2 Bft)
23.07.2010 13:40 23,8 C 49 % 1015,0 hPa 0,0 mm 1,6 km/h (1 Bft) NW 315 10 min 6 UV-I 819 W/m 8,0 km/h (2 Bft)
23.07.2010 13:50 24,3 C 46 % 1014,7 hPa 0,0 mm 3,2 km/h (1 Bft) NW 315 10 min 7 UV-I 879 W/m 16,1 km/h (3 Bft)
23.07.2010 14:00 24,4 C 46 % 1014,7 hPa 0,0 mm 3,2 km/h (1 Bft) W 270 10 min 5 UV-I 737 W/m 16,1 km/h (3 Bft)
23.07.2010 14:10 24,4 C 48 % 1014,7 hPa 0,0 mm 1,6 km/h (1 Bft) NW 315 10 min 4 UV-I 512 W/m 9,7 km/h (2 Bft)
23.07.2010 14:20 24,3 C 48 % 1014,8 hPa 0,0 mm 3,2 km/h (1 Bft) NW 315 10 min 5 UV-I 582 W/m 9,7 km/h (2 Bft)
23.07.2010 14:30 24,3 C 44 % 1014,8 hPa 0,0 mm 1,6 km/h (1 Bft) NW 315 10 min 4 UV-I 524 W/m 11,3 km/h (2 Bft)
23.07.2010 14:40 24,4 C 47 % 1014,7 hPa 0,0 mm 1,6 km/h (1 Bft) NW 315 10 min 4 UV-I 503 W/m 9,7 km/h (2 Bft)
23.07.2010 14:50 24,4 C 45 % 1014,5 hPa 0,0 mm 3,2 km/h (1 Bft) N-NO 22 10 min 4 UV-I 524 W/m 11,3 km/h (2 Bft)
23.07.2010 15:00 24,8 C 45 % 1014,3 hPa 0,0 mm 3,2 km/h (1 Bft) W 270 10 min 5 UV-I 724 W/m 14,5 km/h (3 Bft)
23.07.2010 15:10 25,1 C 46 % 1014,0 hPa 0,0 mm 1,6 km/h (1 Bft) N 360 10 min 4 UV-I 587 W/m 8,0 km/h (2 Bft)
23.07.2010 15:20 24,8 C 46 % 1013,9 hPa 0,0 mm 1,6 km/h (1 Bft) N-NO 22 10 min 4 UV-I 482 W/m 4,8 km/h (1 Bft)
23.07.2010 15:30 24,4 C 45 % 1014,0 hPa 0,0 mm 3,2 km/h (1 Bft) NW 315 0 min 3 UV-I 394 W/m 11,3 km/h (2 Bft)
23.07.2010 15:40 24,4 C 47 % 1013,8 hPa 0,0 mm 1,6 km/h (1 Bft) N-NW 337 10 min 3 UV-I 485 W/m 6,4 km/h (2 Bft)
23.07.2010 15:50 25,1 C 45 % 1013,9 hPa 0,0 mm 1,6 km/h (1 Bft) NW 315 10 min 4 UV-I 684 W/m 8,0 km/h (2 Bft)
23.07.2010 16:00 24,9 C 44 % 1014,0 hPa 0,0 mm 4,1 km/h (1 Bft) NW 318 10 min 3 UV-I 429 W/m 9,7 km/h (2 Bft)
23.07.2010 16:10 24,6 C 42 % 1014,0 hPa 0,0 mm 3,2 km/h (1 Bft) NW 315 10 min 3 UV-I 399 W/m 9,7 km/h (2 Bft)
23.07.2010 16:20 24,7 C 44 % 1014,0 hPa 0,0 mm 1,6 km/h (1 Bft) N 360 0 min 3 UV-I 367 W/m 6,4 km/h (2 Bft)
23.07.2010 16:30 24,7 C 43 % 1014,0 hPa 0,0 mm 0,0 km/h (0 Bft) NW 315 10 min 2 UV-I 374 W/m 6,4 km/h (2 Bft)
23.07.2010 16:40 24,7 C 43 % 1014,3 hPa 0,0 mm 1,6 km/h (1 Bft) W-NW 292 10 min 3 UV-I 397 W/m 8,0 km/h (2 Bft)
23.07.2010 16:50 25,3 C 42 % 1014,2 hPa 0,0 mm 1,6 km/h (1 Bft) W-NW 292 10 min 4 UV-I 803 W/m 11,3 km/h (2 Bft)
23.07.2010 17:00 24,8 C 40 % 1014,2 hPa 0,0 mm 3,2 km/h (1 Bft) W-NW 292 10 min 2 UV-I 380 W/m 9,7 km/h (2 Bft)
23.07.2010 17:10 24,6 C 41 % 1014,1 hPa 0,0 mm 1,6 km/h (1 Bft) W-NW 292 10 min 2 UV-I 339 W/m 8,0 km/h (2 Bft)
23.07.2010 17:20 24,4 C 41 % 1013,7 hPa 0,0 mm 1,6 km/h (1 Bft) NW 315 0 min 2 UV-I 301 W/m 8,0 km/h (2 Bft)
23.07.2010 17:30 24,6 C 42 % 1013,7 hPa 0,0 mm 1,6 km/h (1 Bft) N-NO 22 0 min 2 UV-I 297 W/m 9,7 km/h (2 Bft)
23.07.2010 17:40 24,6 C 43 % 1013,6 hPa 0,0 mm 1,6 km/h (1 Bft) N-NW 337 0 min 2 UV-I 260 W/m 8,0 km/h (2 Bft)
23.07.2010 17:50 24,3 C 42 % 1013,7 hPa 0,0 mm 1,6 km/h (1 Bft) N 360 0 min 1 UV-I 229 W/m 8,0 km/h (2 Bft)
23.07.2010 18:00 24,3 C 44 % 1013,4 hPa 0,0 mm 0,0 km/h (0 Bft) N 360 0 min 1 UV-I 207 W/m 4,8 km/h (1 Bft)
23.07.2010 18:10 24,3 C 44 % 1013,7 hPa 0,0 mm 1,6 km/h (1 Bft) N-NO 22 0 min 1 UV-I 218 W/m 6,4 km/h (2 Bft)
23.07.2010 18:20 24,4 C 45 % 1014,0 hPa 0,0 mm 0,0 km/h (0 Bft) N-NW 337 0 min 1 UV-I 223 W/m 6,4 km/h (2 Bft)
23.07.2010 18:30 24,3 C 46 % 1013,9 hPa 0,0 mm 0,0 km/h (0 Bft) NW 315 0 min 1 UV-I 188 W/m 6,4 km/h (2 Bft)
23.07.2010 18:40 24,2 C 45 % 1014,1 hPa 0,0 mm 0,0 km/h (0 Bft) NW 315 0 min 1 UV-I 165 W/m 4,8 km/h (1 Bft)
23.07.2010 18:50 23,9 C 44 % 1014,1 hPa 0,0 mm 1,6 km/h (1 Bft) W-NW 292 0 min 1 UV-I 132 W/m 9,7 km/h (2 Bft)
23.07.2010 19:00 23,7 C 46 % 1014,2 hPa 0,0 mm 1,6 km/h (1 Bft) W-NW 292 0 min 1 UV-I 116 W/m 8,0 km/h (2 Bft)
23.07.2010 19:10 23,6 C 48 % 1014,2 hPa 0,0 mm 1,6 km/h (1 Bft) N 360 0 min 1 UV-I 98 W/m 8,0 km/h (2 Bft)
23.07.2010 19:20 23,4 C 49 % 1014,2 hPa 0,0 mm 0,0 km/h (0 Bft) N 360 0 min 0 UV-I 83 W/m 4,8 km/h (1 Bft)
23.07.2010 19:30 23,2 C 48 % 1014,2 hPa 0,0 mm 0,0 km/h (0 Bft) W-NW 292 0 min 0 UV-I 72 W/m 4,8 km/h (1 Bft)
23.07.2010 19:40 23,2 C 49 % 1014,1 hPa 0,0 mm 0,0 km/h (0 Bft) N-NO 22 0 min 0 UV-I 81 W/m 6,4 km/h (2 Bft)
23.07.2010 19:50 23,2 C 48 % 1014,1 hPa 0,0 mm 0,0 km/h (0 Bft) NW 315 0 min 0 UV-I 86 W/m 6,4 km/h (2 Bft)
23.07.2010 20:00 23,1 C 49 % 1014,1 hPa 0,0 mm 0,0 km/h (0 Bft) NW 315 0 min 0 UV-I 86 W/m 4,8 km/h (1 Bft)
23.07.2010 20:10 22,9 C 49 % 1014,3 hPa 0,0 mm 0,0 km/h (0 Bft) NW 315 0 min 0 UV-I 60 W/m 4,8 km/h (1 Bft)
23.07.2010 20:20 22,7 C 49 % 1014,3 hPa 0,0 mm 0,0 km/h (0 Bft) NW 315 0 min 0 UV-I 51 W/m 1,6 km/h (1 Bft)
23.07.2010 20:30 22,7 C 50 % 1014,4 hPa 0,0 mm 0,0 km/h (0 Bft) NW 315 0 min 0 UV-I 49 W/m 3,2 km/h (1 Bft)
23.07.2010 20:40 22,5 C 52 % 1014,4 hPa 0,0 mm 0,0 km/h (0 Bft) NW 315 0 min 0 UV-I 44 W/m 6,4 km/h (2 Bft)
23.07.2010 20:50 22,3 C 52 % 1014,4 hPa 0,0 mm 1,6 km/h (1 Bft) N-NW 337 0 min 0 UV-I 32 W/m 8,0 km/h (2 Bft)
23.07.2010 21:00 21,9 C 55 % 1014,4 hPa 0,0 mm 0,0 km/h (0 Bft) N-NW 337 10 min 0 UV-I 28 W/m 3,2 km/h (1 Bft)
23.07.2010 21:10 21,6 C 55 % 1014,5 hPa 0,0 mm 1,6 km/h (1 Bft) N 360 10 min 0 UV-I 25 W/m 6,4 km/h (2 Bft)
23.07.2010 21:20 21,4 C 56 % 1014,6 hPa 0,0 mm 1,6 km/h (1 Bft) N 360 0 min 0 UV-I 19 W/m 6,4 km/h (2 Bft)
23.07.2010 21:30 21,2 C 57 % 1014,6 hPa 0,0 mm 1,6 km/h (1 Bft) N 360 0 min 0 UV-I 0 W/m 8,0 km/h (2 Bft)
23.07.2010 21:40 21,2 C 61 % 1014,8 hPa 0,0 mm 4,8 km/h (1 Bft) N-NO 22 0 min 0 UV-I 0 W/m 17,7 km/h (3 Bft)
23.07.2010 21:50 21,1 C 65 % 1014,9 hPa 0,0 mm 8,0 km/h (2 Bft) N 360 0 min 0 UV-I 0 W/m 22,5 km/h (4 Bft)
23.07.2010 22:00 20,8 C 66 % 1014,8 hPa 0,0 mm 4,8 km/h (1 Bft) N 360 0 min 0 UV-I 0 W/m 16,1 km/h (3 Bft)
23.07.2010 22:10 20,6 C 67 % 1015,0 hPa 0,0 mm 8,0 km/h (2 Bft) N 360 0 min 0 UV-I 0 W/m 24,1 km/h (4 Bft)
23.07.2010 22:20 20,6 C 67 % 1015,3 hPa 0,0 mm 4,8 km/h (1 Bft) N 360 0 min 0 UV-I 0 W/m 11,3 km/h (2 Bft)
23.07.2010 22:30 20,4 C 67 % 1015,7 hPa 0,0 mm 3,2 km/h (1 Bft) N-NO 22 0 min 0 UV-I 0 W/m 11,3 km/h (2 Bft)
23.07.2010 22:40 20,4 C 67 % 1015,7 hPa 0,0 mm 3,2 km/h (1 Bft) N-NO 22 0 min 0 UV-I 0 W/m 9,7 km/h (2 Bft)
23.07.2010 22:50 20,3 C 67 % 1015,8 hPa 0,0 mm 1,6 km/h (1 Bft) N-NO 22 0 min 0 UV-I 0 W/m 8,0 km/h (2 Bft)
23.07.2010 23:00 20,1 C 68 % 1015,8 hPa 0,0 mm 3,2 km/h (1 Bft) N-NO 22 0 min 0 UV-I 0 W/m 11,3 km/h (2 Bft)
23.07.2010 23:10 20,0 C 68 % 1015,7 hPa 0,0 mm 0,0 km/h (0 Bft) N-NW 337 0 min 0 UV-I 0 W/m 4,8 km/h (1 Bft)
23.07.2010 23:20 19,9 C 68 % 1015,9 hPa 0,0 mm 0,0 km/h (0 Bft) N-NW 337 0 min 0 UV-I 0 W/m 4,8 km/h (1 Bft)
23.07.2010 23:30 19,8 C 68 % 1016,0 hPa 0,0 mm 0,0 km/h (0 Bft) N-NW 337 0 min 0 UV-I 0 W/m 3,2 km/h (1 Bft)
23.07.2010 23:40 19,7 C 69 % 1015,9 hPa 0,0 mm 0,0 km/h (0 Bft) N-NW 337 0 min 0 UV-I 0 W/m 3,2 km/h (1 Bft)
23.07.2010 23:50 19,5 C 69 % 1016,1 hPa 0,0 mm 0,0 km/h (0 Bft) N-NW 337 0 min 0 UV-I 0 W/m 1,6 km/h (1 Bft)
_ Min-Zeit 01:10 17:00 18:00 - 00:00 - - - - - 00:00
Minimum _ 16,4 C 40 % 1013,4 hPa - 0,0 km/h (0 Bft) - - - - - 0,0 km/h (0 Bft)
_ Max-Zeit 16:50 01:20 23:50 05:50 21:50 - - 08:50 13:50 12:10 22:10
Maximum _ 25,4 C 93 % 1016,1 hPa 0,5 mm 8,0 km/h
N (2 Bft)
- - 10 min 7 UV-I 884 W/m 24,1 km/h
N-NW (4 Bft)
Durchschnitt _ 20,5 C 70 % 1014,9 hPa #0,8 mm 1,2 km/h (1 Bft) NW - #8:20 h 3 UV-I 378 W/m 6,2 km/h (2 Bft)